createdAt,value
2023-05-08T00:01:44.656Z,98115.16
2023-05-08T00:04:11.718Z,98118.95
2023-05-08T00:06:38.442Z,98123.30
2023-05-08T00:09:05.561Z,98121.27
2023-05-08T00:11:32.580Z,98116.95
2023-05-08T00:13:59.220Z,98115.73
2023-05-08T00:16:26.147Z,98103.49
2023-05-08T00:18:53.683Z,98098.55
2023-05-08T00:21:20.425Z,98102.77
2023-05-08T00:23:47.103Z,98106.48
2023-05-08T00:26:13.918Z,98117.80
2023-05-08T00:28:40.715Z,98129.23
2023-05-08T00:31:07.637Z,98138.98
2023-05-08T00:33:34.434Z,98146.73
2023-05-08T00:36:03.201Z,98148.02
2023-05-08T00:38:31.109Z,98154.52
2023-05-08T00:40:57.863Z,98157.95
2023-05-08T00:43:25.249Z,98149.02
2023-05-08T00:45:52.070Z,98135.79
2023-05-08T00:48:18.869Z,98130.08
2023-05-08T00:50:46.449Z,98129.50
2023-05-08T00:53:13.367Z,98131.19
2023-05-08T00:55:40.154Z,98123.20
2023-05-08T00:58:08.783Z,98110.26
2023-05-08T01:00:35.467Z,98108.71
2023-05-08T01:03:02.859Z,98106.02
2023-05-08T01:05:30.092Z,98103.14
2023-05-08T01:07:56.955Z,98106.85
2023-05-08T01:10:23.724Z,98109.66
2023-05-08T01:13:14.199Z,98102.08
2023-05-08T01:15:54.022Z,98098.85
2023-05-08T01:18:37.998Z,98102.05
2023-05-08T01:21:12.522Z,98111.27
2023-05-08T01:24:00.763Z,98111.70
2023-05-08T01:26:55.126Z,98107.84
2023-05-08T01:29:36.944Z,98103.36
2023-05-08T01:32:28.053Z,98099.52
2023-05-08T01:34:57.177Z,98100.65
2023-05-08T01:37:56.205Z,98103.33
2023-05-08T01:40:43.941Z,98109.00
2023-05-08T01:43:38.668Z,98112.93
2023-05-08T01:46:08.451Z,98115.44
2023-05-08T01:48:35.628Z,98114.85
2023-05-08T01:51:11.505Z,98123.56
2023-05-08T01:53:42.256Z,98133.70
2023-05-08T01:56:11.498Z,98133.17
2023-05-08T01:58:38.612Z,98125.97
2023-05-08T02:01:05.693Z,98118.77
2023-05-08T02:03:32.950Z,98113.08
2023-05-08T02:06:00.226Z,98111.29
2023-05-08T02:08:27.610Z,98112.95
2023-05-08T02:10:54.256Z,98113.34
2023-05-08T02:13:21.504Z,98112.86
2023-05-08T02:15:48.849Z,98115.48
2023-05-08T02:18:16.326Z,98116.41
2023-05-08T02:20:43.104Z,98119.19
2023-05-08T02:23:10.000Z,98116.44
2023-05-08T02:25:36.947Z,98117.08
2023-05-08T02:28:03.830Z,98112.21
2023-05-08T02:30:30.415Z,98108.02
2023-05-08T02:32:58.937Z,98105.91
2023-05-08T02:35:27.454Z,98102.84
2023-05-08T02:37:55.040Z,98097.29
2023-05-08T02:40:22.158Z,98096.09
2023-05-08T02:42:49.301Z,98092.31
2023-05-08T02:45:16.267Z,98088.71
2023-05-08T02:47:51.545Z,98092.12
2023-05-08T02:50:22.460Z,98098.41
2023-05-08T02:52:53.914Z,98102.37
2023-05-08T02:55:30.349Z,98097.96
2023-05-08T02:58:04.634Z,98096.80
2023-05-08T03:00:33.089Z,98099.65
2023-05-08T03:03:03.231Z,98108.62
2023-05-08T03:05:31.417Z,98109.50
2023-05-08T03:08:04.834Z,98104.25
2023-05-08T03:10:33.135Z,98099.95
2023-05-08T03:13:02.465Z,98099.73
2023-05-08T03:15:34.491Z,98108.48
2023-05-08T03:18:03.703Z,98112.61
2023-05-08T03:20:32.193Z,98111.89
2023-05-08T03:22:58.894Z,98121.35
2023-05-08T03:25:25.573Z,98109.95
2023-05-08T03:27:52.355Z,98095.34
2023-05-08T03:30:19.607Z,98099.10
2023-05-08T03:32:54.121Z,98106.64
2023-05-08T03:35:21.025Z,98107.02
2023-05-08T03:37:48.758Z,98104.38
2023-05-08T03:40:15.875Z,98100.03
2023-05-08T03:42:42.557Z,98098.41
2023-05-08T03:45:09.892Z,98087.86
2023-05-08T03:47:36.878Z,98076.87
2023-05-08T03:50:04.201Z,98080.05
2023-05-08T03:52:31.719Z,98087.67
2023-05-08T03:54:59.190Z,98094.55
2023-05-08T03:57:27.578Z,98096.48
2023-05-08T04:00:01.234Z,98096.77
2023-05-08T04:02:42.365Z,98094.51
2023-05-08T04:05:18.408Z,98093.80
2023-05-08T04:07:50.227Z,98099.66
2023-05-08T04:10:30.600Z,98104.70
2023-05-08T04:13:08.350Z,98103.45
2023-05-08T04:15:43.390Z,98110.34
2023-05-08T04:18:12.674Z,98117.16
2023-05-08T04:20:40.307Z,98121.80
2023-05-08T04:23:07.378Z,98122.06
2023-05-08T04:25:36.473Z,98123.20
2023-05-08T04:28:03.361Z,98131.09
2023-05-08T04:30:30.699Z,98138.65
2023-05-08T04:32:58.938Z,98139.13
2023-05-08T04:35:26.032Z,98138.27
2023-05-08T04:37:52.832Z,98134.95
2023-05-08T04:40:19.644Z,98137.21
2023-05-08T04:42:47.061Z,98138.61
2023-05-08T04:45:14.496Z,98137.66
2023-05-08T04:47:41.469Z,98140.73
2023-05-08T04:50:09.449Z,98135.61
2023-05-08T04:52:36.557Z,98134.42
2023-05-08T04:55:03.732Z,98131.08
2023-05-08T04:57:33.253Z,98131.52
2023-05-08T05:00:00.203Z,98126.80
2023-05-08T05:02:27.203Z,98132.48
2023-05-08T05:04:53.971Z,98135.48
2023-05-08T05:07:20.806Z,98143.17
2023-05-08T05:09:47.746Z,98144.31
2023-05-08T05:12:14.569Z,98145.71
2023-05-08T05:14:41.531Z,98144.48
2023-05-08T05:17:08.603Z,98138.79
2023-05-08T05:19:35.680Z,98145.60
2023-05-08T05:22:02.488Z,98143.23
2023-05-08T05:24:30.022Z,98145.96
2023-05-08T05:26:58.125Z,98151.11
2023-05-08T05:29:24.709Z,98150.78
2023-05-08T05:31:51.615Z,98154.88
2023-05-08T05:34:18.382Z,98160.27
2023-05-08T05:36:45.037Z,98169.06
2023-05-08T05:39:12.508Z,98169.74
2023-05-08T05:41:41.663Z,98165.73
2023-05-08T05:44:08.315Z,98170.64
2023-05-08T05:46:35.083Z,98171.55
2023-05-08T05:49:02.660Z,98170.67
2023-05-08T05:51:29.629Z,98181.08
2023-05-08T05:53:56.889Z,98171.94
2023-05-08T05:56:23.775Z,98168.28
2023-05-08T05:58:51.133Z,98169.80
2023-05-08T06:01:18.015Z,98169.51
2023-05-08T06:03:44.833Z,98167.16
2023-05-08T06:06:11.867Z,98163.33
2023-05-08T06:08:38.938Z,98156.45
2023-05-08T06:11:05.568Z,98156.77
2023-05-08T06:13:32.659Z,98155.03
2023-05-08T06:16:00.665Z,98150.20
2023-05-08T06:18:27.780Z,98147.19
2023-05-08T06:20:58.004Z,98152.55
2023-05-08T06:23:25.296Z,98150.08
2023-05-08T06:25:52.989Z,98146.40
2023-05-08T06:28:19.630Z,98147.58
2023-05-08T06:30:46.713Z,98148.71
2023-05-08T06:33:13.472Z,98147.94
2023-05-08T06:35:40.535Z,98150.66
2023-05-08T06:38:07.115Z,98148.30
2023-05-08T06:40:33.896Z,98152.55
2023-05-08T06:43:00.908Z,98152.55
2023-05-08T06:45:27.776Z,98159.74
2023-05-08T06:47:54.674Z,98163.14
2023-05-08T06:50:21.893Z,98168.28
2023-05-08T06:52:48.718Z,98171.67
2023-05-08T06:55:15.531Z,98177.89
2023-05-08T06:57:42.346Z,98178.83
2023-05-08T07:00:09.518Z,98181.67
2023-05-08T07:02:36.895Z,98182.66
2023-05-08T07:05:04.299Z,98191.09
2023-05-08T07:07:31.310Z,98191.41
2023-05-08T07:09:58.074Z,98196.69
2023-05-08T07:12:24.712Z,98198.82
2023-05-08T07:14:52.159Z,98199.67
2023-05-08T07:17:18.828Z,98204.79
2023-05-08T07:19:49.827Z,98209.39
2023-05-08T07:22:16.612Z,98218.55
2023-05-08T07:24:43.720Z,98218.46
2023-05-08T07:27:10.841Z,98223.33
2023-05-08T07:29:37.527Z,98228.25
2023-05-08T07:32:07.076Z,98234.27
2023-05-08T07:34:34.484Z,98241.07
2023-05-08T07:37:02.240Z,98244.90
2023-05-08T07:39:29.259Z,98246.45
2023-05-08T07:41:55.929Z,98248.41
2023-05-08T07:44:22.667Z,98254.69
2023-05-08T07:46:49.409Z,98254.27
2023-05-08T07:49:16.520Z,98253.64
2023-05-08T07:51:43.507Z,98250.67
2023-05-08T07:54:10.247Z,98254.43
2023-05-08T07:56:36.971Z,98254.98
2023-05-08T07:59:03.563Z,98254.41
2023-05-08T08:01:30.147Z,98246.06
2023-05-08T08:03:56.980Z,98247.98
2023-05-08T08:06:23.982Z,98255.23
2023-05-08T08:08:50.628Z,98255.45
2023-05-08T08:11:18.275Z,98256.77
2023-05-08T08:13:44.921Z,98254.98
2023-05-08T08:16:11.555Z,98253.81
2023-05-08T08:18:38.619Z,98260.29
2023-05-08T08:21:06.217Z,98255.19
2023-05-08T08:23:33.260Z,98257.65
2023-05-08T08:26:00.697Z,98258.15
2023-05-08T08:28:27.384Z,98262.86
2023-05-08T08:30:54.008Z,98260.96
2023-05-08T08:33:20.677Z,98264.48
2023-05-08T08:35:47.466Z,98260.65
2023-05-08T08:38:14.398Z,98264.05
2023-05-08T08:40:41.244Z,98266.36
2023-05-08T08:43:09.123Z,98267.73
2023-05-08T08:45:36.561Z,98272.65
2023-05-08T08:48:03.957Z,98270.10
2023-05-08T08:50:32.441Z,98273.38
2023-05-08T08:53:25.568Z,98269.71
2023-05-08T08:55:53.202Z,98268.66
2023-05-08T08:58:28.053Z,98265.86
2023-05-08T09:00:55.874Z,98266.46
2023-05-08T09:03:22.693Z,98267.23
2023-05-08T09:05:49.941Z,98264.58
2023-05-08T09:08:18.114Z,98267.92
2023-05-08T09:10:45.979Z,98265.41
2023-05-08T09:13:12.764Z,98266.40
2023-05-08T09:15:39.368Z,98264.91
2023-05-08T09:18:06.044Z,98264.88
2023-05-08T09:20:32.750Z,98265.45
2023-05-08T09:23:01.005Z,98268.21
2023-05-08T09:25:46.673Z,98266.47
2023-05-08T09:28:23.311Z,98267.38
2023-05-08T09:30:58.311Z,98271.15
2023-05-08T09:33:28.834Z,98275.05
2023-05-08T09:35:56.080Z,98271.67
2023-05-08T09:38:35.832Z,98267.89
2023-05-08T09:41:10.212Z,98272.96
2023-05-08T09:43:37.778Z,98274.06
2023-05-08T09:46:23.025Z,98272.77
2023-05-08T09:48:50.293Z,98270.27
2023-05-08T09:51:17.271Z,98266.45
2023-05-08T09:53:44.190Z,98268.27
2023-05-08T09:56:10.802Z,98264.61
2023-05-08T09:58:47.267Z,98262.24
2023-05-08T10:01:39.274Z,98264.77
2023-05-08T10:04:06.319Z,98260.70
2023-05-08T10:06:33.436Z,98261.23
2023-05-08T10:09:28.904Z,98260.70
2023-05-08T10:12:03.112Z,98259.96
2023-05-08T10:14:29.676Z,98252.98
2023-05-08T10:16:56.763Z,98253.80
2023-05-08T10:19:24.191Z,98259.30
2023-05-08T10:21:52.394Z,98258.21
2023-05-08T10:24:20.310Z,98260.88
2023-05-08T10:27:13.677Z,98260.83
2023-05-08T10:29:53.033Z,98263.21
2023-05-08T10:32:20.428Z,98262.77
2023-05-08T10:34:55.943Z,98264.52
2023-05-08T10:37:22.604Z,98270.20
2023-05-08T10:39:49.446Z,98272.12
2023-05-08T10:42:16.140Z,98268.36
2023-05-08T10:44:42.800Z,98265.19
2023-05-08T10:47:20.386Z,98262.52
2023-05-08T10:50:18.060Z,98272.59
2023-05-08T10:52:52.180Z,98275.38
2023-05-08T10:55:31.938Z,98274.84
2023-05-08T10:58:01.679Z,98271.23
2023-05-08T11:00:56.406Z,98277.51
2023-05-08T11:03:31.448Z,98282.75
2023-05-08T11:06:00.334Z,98278.84
2023-05-08T11:08:28.118Z,98282.43
2023-05-08T11:11:01.166Z,98285.27
2023-05-08T11:13:36.216Z,98280.73
2023-05-08T11:16:03.449Z,98276.50
2023-05-08T11:18:41.724Z,98272.02
2023-05-08T11:21:21.128Z,98267.45
2023-05-08T11:23:57.416Z,98264.83
2023-05-08T11:26:38.268Z,98269.88
2023-05-08T11:29:15.409Z,98273.94
2023-05-08T11:31:52.069Z,98276.25
2023-05-08T11:34:43.844Z,98271.84
2023-05-08T11:37:17.796Z,98280.55
2023-05-08T11:39:44.363Z,98283.77
2023-05-08T11:42:29.040Z,98287.75
2023-05-08T11:45:13.113Z,98284.80
2023-05-08T11:47:43.697Z,98284.63
2023-05-08T11:50:11.667Z,98283.55
2023-05-08T11:52:40.784Z,98280.33
2023-05-08T11:55:08.751Z,98278.32
2023-05-08T11:57:35.757Z,98279.45
2023-05-08T12:00:09.383Z,98284.89
2023-05-08T12:02:45.431Z,98279.77
2023-05-08T12:05:12.477Z,98279.16
2023-05-08T12:07:43.884Z,98275.84
2023-05-08T12:10:10.693Z,98277.20
2023-05-08T12:12:40.949Z,98278.75
2023-05-08T12:15:08.345Z,98274.83
2023-05-08T12:17:35.690Z,98276.95
2023-05-08T12:20:13.020Z,98274.96
2023-05-08T12:22:40.893Z,98268.64
2023-05-08T12:25:09.769Z,98267.13
2023-05-08T12:27:37.209Z,98265.54
2023-05-08T12:30:11.834Z,98261.66
2023-05-08T12:32:42.605Z,98263.83
2023-05-08T12:35:10.384Z,98264.92
2023-05-08T12:37:37.150Z,98264.72
2023-05-08T12:40:04.839Z,98266.43
2023-05-08T12:42:44.333Z,98261.25
2023-05-08T12:45:24.108Z,98263.80
2023-05-08T12:47:51.688Z,98263.39
2023-05-08T12:50:22.374Z,98263.59
2023-05-08T12:52:51.277Z,98263.33
2023-05-08T12:55:25.310Z,98260.81
2023-05-08T12:57:59.609Z,98257.67
2023-05-08T13:00:36.715Z,98252.92
2023-05-08T13:03:03.824Z,98248.76
2023-05-08T13:05:30.967Z,98247.91
2023-05-08T13:08:01.691Z,98252.44
2023-05-08T13:10:46.872Z,98252.59
2023-05-08T13:13:14.112Z,98250.80
2023-05-08T13:15:41.333Z,98256.39
2023-05-08T13:18:08.266Z,98256.10
2023-05-08T13:20:35.575Z,98256.70
2023-05-08T13:23:02.762Z,98261.84
2023-05-08T13:25:29.827Z,98260.36
2023-05-08T13:28:00.452Z,98264.11
2023-05-08T13:30:27.181Z,98266.44
2023-05-08T13:32:54.235Z,98265.09
2023-05-08T13:35:21.389Z,98266.59
2023-05-08T13:37:48.091Z,98267.65
2023-05-08T13:40:15.158Z,98269.85
2023-05-08T13:42:41.843Z,98274.30
2023-05-08T13:45:10.283Z,98271.61
2023-05-08T13:47:37.163Z,98278.61
2023-05-08T13:50:04.000Z,98275.99
2023-05-08T13:52:31.137Z,98278.03
2023-05-08T13:54:58.074Z,98278.22
2023-05-08T13:57:25.828Z,98282.98
2023-05-08T13:59:52.474Z,98285.52
2023-05-08T14:02:19.630Z,98286.31
2023-05-08T14:04:46.952Z,98283.05
2023-05-08T14:07:13.690Z,98286.64
2023-05-08T14:09:40.330Z,98286.88
2023-05-08T14:12:07.084Z,98291.27
2023-05-08T14:14:34.473Z,98289.09
2023-05-08T14:17:01.816Z,98292.88
2023-05-08T14:19:28.557Z,98292.20
2023-05-08T14:21:55.264Z,98296.04
2023-05-08T14:24:22.018Z,98295.69
2023-05-08T14:26:48.650Z,98297.24
2023-05-08T14:29:15.808Z,98301.62
2023-05-08T14:31:42.416Z,98302.36
2023-05-08T14:34:09.045Z,98303.27
2023-05-08T14:36:35.751Z,98301.31
2023-05-08T14:39:03.030Z,98299.11
2023-05-08T14:41:30.251Z,98305.59
2023-05-08T14:43:57.092Z,98311.30
2023-05-08T14:46:24.337Z,98316.13
2023-05-08T14:48:51.285Z,98322.82
2023-05-08T14:51:20.817Z,98320.65
2023-05-08T14:53:47.659Z,98322.36
2023-05-08T14:56:15.089Z,98322.61
2023-05-08T14:58:41.949Z,98327.96
2023-05-08T15:01:08.867Z,98325.81
2023-05-08T15:03:35.711Z,98325.58
2023-05-08T15:06:04.212Z,98320.02
2023-05-08T15:08:31.165Z,98325.27
2023-05-08T15:10:58.418Z,98333.86
2023-05-08T15:13:25.328Z,98334.92
2023-05-08T15:15:52.139Z,98335.59
2023-05-08T15:18:20.125Z,98335.41
2023-05-08T15:20:46.879Z,98336.15
2023-05-08T15:23:13.495Z,98333.89
2023-05-08T15:25:40.208Z,98332.80
2023-05-08T15:28:06.931Z,98336.42
2023-05-08T15:30:33.622Z,98340.52
2023-05-08T15:33:00.804Z,98344.18
2023-05-08T15:35:27.623Z,98347.42
2023-05-08T15:37:54.589Z,98346.20
2023-05-08T15:40:21.194Z,98342.39
2023-05-08T15:42:48.097Z,98348.29
2023-05-08T15:45:16.054Z,98347.79
2023-05-08T15:47:43.323Z,98348.83
2023-05-08T15:50:10.658Z,98347.91
2023-05-08T15:52:38.432Z,98344.77
2023-05-08T15:55:05.386Z,98340.09
2023-05-08T15:57:32.044Z,98331.77
2023-05-08T15:59:58.733Z,98325.91
2023-05-08T16:02:25.568Z,98329.59
2023-05-08T16:04:52.392Z,98330.21
2023-05-08T16:07:19.025Z,98336.01
2023-05-08T16:09:46.021Z,98341.30
2023-05-08T16:12:12.762Z,98344.21
2023-05-08T16:14:39.328Z,98348.35
2023-05-08T16:17:09.829Z,98349.64
2023-05-08T16:19:37.853Z,98348.91
2023-05-08T16:22:04.592Z,98349.27
2023-05-08T16:24:32.699Z,98347.31
2023-05-08T16:26:59.546Z,98358.05
2023-05-08T16:29:27.149Z,98356.30
2023-05-08T16:31:53.940Z,98354.34
2023-05-08T16:34:20.906Z,98356.70
2023-05-08T16:36:47.674Z,98358.40
2023-05-08T16:39:14.346Z,98363.86
2023-05-08T16:41:41.122Z,98370.80
2023-05-08T16:44:08.022Z,98374.92
2023-05-08T16:46:34.712Z,98379.33
2023-05-08T16:49:01.448Z,98379.50
2023-05-08T16:51:28.268Z,98382.73
2023-05-08T16:53:56.123Z,98383.70
2023-05-08T16:56:24.594Z,98386.50
2023-05-08T16:58:51.483Z,98388.17
2023-05-08T17:01:18.284Z,98392.21
2023-05-08T17:03:45.015Z,98392.13
2023-05-08T17:06:11.605Z,98393.80
2023-05-08T17:08:38.449Z,98400.17
2023-05-08T17:11:05.388Z,98399.13
2023-05-08T17:13:32.574Z,98404.75
2023-05-08T17:15:59.417Z,98406.51
2023-05-08T17:18:26.094Z,98410.55
2023-05-08T17:20:52.695Z,98417.69
2023-05-08T17:23:19.651Z,98416.04
2023-05-08T17:25:46.568Z,98416.34
2023-05-08T17:28:13.378Z,98422.67
2023-05-08T17:30:40.097Z,98427.17
2023-05-08T17:33:07.056Z,98424.40
2023-05-08T17:35:34.408Z,98422.88
2023-05-08T17:38:01.248Z,98426.84
2023-05-08T17:40:28.491Z,98429.12
2023-05-08T17:42:55.174Z,98432.48
2023-05-08T17:45:21.921Z,98437.05
2023-05-08T17:47:48.573Z,98444.29
2023-05-08T17:50:15.666Z,98440.38
2023-05-08T17:52:42.633Z,98441.37
2023-05-08T17:55:09.578Z,98445.80
2023-05-08T17:57:36.477Z,98451.52
2023-05-08T18:00:05.434Z,98454.13
2023-05-08T18:02:35.985Z,98453.43
2023-05-08T18:05:03.060Z,98455.14
2023-05-08T18:07:29.857Z,98453.83
2023-05-08T18:09:56.628Z,98455.59
2023-05-08T18:12:23.325Z,98455.69
2023-05-08T18:14:50.401Z,98459.81
2023-05-08T18:17:21.393Z,98469.00
2023-05-08T18:19:48.166Z,98470.08
2023-05-08T18:22:15.169Z,98474.54
2023-05-08T18:24:42.027Z,98471.20
2023-05-08T18:27:08.635Z,98477.02
2023-05-08T18:29:35.338Z,98486.28
2023-05-08T18:32:02.243Z,98492.16
2023-05-08T18:34:28.987Z,98491.73
2023-05-08T18:36:56.791Z,98492.88
2023-05-08T18:39:25.333Z,98502.15
2023-05-08T18:41:52.110Z,98497.21
2023-05-08T18:44:18.669Z,98495.80
2023-05-08T18:46:45.974Z,98499.92
2023-05-08T18:49:12.694Z,98499.18
2023-05-08T18:51:39.385Z,98499.09
2023-05-08T18:54:06.046Z,98500.73
2023-05-08T18:56:33.806Z,98502.80
2023-05-08T18:59:00.993Z,98506.47
2023-05-08T19:01:27.856Z,98510.51
2023-05-08T19:03:54.958Z,98519.90
2023-05-08T19:06:21.740Z,98524.64
2023-05-08T19:08:48.439Z,98526.83
2023-05-08T19:11:15.657Z,98525.84
2023-05-08T19:13:42.226Z,98522.73
2023-05-08T19:16:09.119Z,98522.21
2023-05-08T19:18:36.081Z,98524.21
2023-05-08T19:21:02.912Z,98521.02
2023-05-08T19:23:29.720Z,98524.42
2023-05-08T19:25:56.460Z,98530.76
2023-05-08T19:28:23.286Z,98534.42
2023-05-08T19:30:50.075Z,98535.89
2023-05-08T19:33:19.898Z,98536.33
2023-05-08T19:35:47.190Z,98539.07
2023-05-08T19:38:14.094Z,98539.60
2023-05-08T19:40:54.898Z,98540.29
2023-05-08T19:43:23.103Z,98541.02
2023-05-08T19:45:49.794Z,98546.94
2023-05-08T19:48:18.863Z,98545.47
2023-05-08T19:50:45.979Z,98543.12
2023-05-08T19:53:12.656Z,98545.80
2023-05-08T19:55:39.338Z,98547.62
2023-05-08T19:58:06.094Z,98547.55
2023-05-08T20:00:32.781Z,98543.15
2023-05-08T20:02:59.527Z,98536.59
2023-05-08T20:05:26.296Z,98534.88
2023-05-08T20:07:52.935Z,98539.06
2023-05-08T20:10:19.654Z,98539.96
2023-05-08T20:12:46.319Z,98539.23
2023-05-08T20:15:13.184Z,98537.45
2023-05-08T20:17:39.994Z,98541.04
2023-05-08T20:20:07.552Z,98537.56
2023-05-08T20:22:34.266Z,98544.05
2023-05-08T20:25:03.512Z,98544.70
2023-05-08T20:27:31.135Z,98550.61
2023-05-08T20:29:57.797Z,98549.63
2023-05-08T20:32:24.529Z,98557.34
2023-05-08T20:34:51.110Z,98560.74
2023-05-08T20:37:17.741Z,98563.87
2023-05-08T20:39:44.689Z,98562.15
2023-05-08T20:42:12.295Z,98563.91
2023-05-08T20:44:39.286Z,98563.74
2023-05-08T20:47:06.121Z,98565.83
2023-05-08T20:49:32.809Z,98567.79
2023-05-08T20:51:59.398Z,98568.52
2023-05-08T20:54:26.266Z,98568.89
2023-05-08T20:56:53.364Z,98572.10
2023-05-08T20:59:20.900Z,98568.85
2023-05-08T21:01:47.601Z,98571.56
2023-05-08T21:04:14.750Z,98570.67
2023-05-08T21:06:41.526Z,98569.95
2023-05-08T21:09:08.169Z,98566.65
2023-05-08T21:11:34.830Z,98566.70
2023-05-08T21:14:01.811Z,98564.58
2023-05-08T21:16:28.470Z,98566.91
2023-05-08T21:18:57.517Z,98563.38
2023-05-08T21:21:25.245Z,98563.34
2023-05-08T21:23:52.317Z,98563.52
2023-05-08T21:26:20.410Z,98561.36
2023-05-08T21:28:46.976Z,98564.35
2023-05-08T21:31:13.598Z,98567.09
2023-05-08T21:33:40.440Z,98563.85
2023-05-08T21:36:07.535Z,98562.44
2023-05-08T21:38:34.323Z,98566.45
2023-05-08T21:41:07.857Z,98567.67
2023-05-08T21:43:38.488Z,98564.92
2023-05-08T21:46:06.029Z,98569.04
2023-05-08T21:48:33.411Z,98572.02
2023-05-08T21:51:00.338Z,98567.94
2023-05-08T21:53:26.919Z,98565.09
2023-05-08T21:55:53.977Z,98567.38
2023-05-08T21:58:21.244Z,98566.43
2023-05-08T22:00:48.004Z,98565.29
2023-05-08T22:03:15.523Z,98560.20
2023-05-08T22:05:42.217Z,98565.30
2023-05-08T22:08:08.782Z,98562.24
2023-05-08T22:10:35.652Z,98564.66
2023-05-08T22:13:02.651Z,98563.70
2023-05-08T22:15:30.551Z,98561.05
2023-05-08T22:17:58.440Z,98560.08
2023-05-08T22:20:25.295Z,98559.60
2023-05-08T22:22:52.091Z,98563.34
2023-05-08T22:25:20.993Z,98562.30
2023-05-08T22:27:47.638Z,98560.57
2023-05-08T22:30:14.682Z,98559.73
2023-05-08T22:32:42.092Z,98560.92
2023-05-08T22:35:08.923Z,98559.82
2023-05-08T22:37:36.228Z,98559.76
2023-05-08T22:40:03.711Z,98558.77
2023-05-08T22:42:30.357Z,98560.41
2023-05-08T22:44:56.920Z,98556.20
2023-05-08T22:47:25.296Z,98556.86
2023-05-08T22:49:52.029Z,98560.09
2023-05-08T22:52:19.043Z,98561.27
2023-05-08T22:54:45.815Z,98558.48
2023-05-08T22:57:14.075Z,98559.05
2023-05-08T22:59:41.186Z,98556.49
2023-05-08T23:02:07.776Z,98554.36
2023-05-08T23:04:35.176Z,98554.37
2023-05-08T23:07:02.253Z,98559.14
2023-05-08T23:09:30.207Z,98554.52
2023-05-08T23:11:56.852Z,98557.95
2023-05-08T23:14:23.550Z,98557.98
2023-05-08T23:16:50.640Z,98557.45
2023-05-08T23:19:17.386Z,98552.35
2023-05-08T23:21:44.065Z,98550.14
2023-05-08T23:24:11.759Z,98551.69
2023-05-08T23:26:41.392Z,98555.32
2023-05-08T23:29:09.114Z,98555.81
2023-05-08T23:31:35.907Z,98548.80
2023-05-08T23:34:02.641Z,98545.38
2023-05-08T23:36:29.381Z,98542.12
2023-05-08T23:38:55.978Z,98541.30
2023-05-08T23:41:23.517Z,98541.95
2023-05-08T23:43:50.172Z,98544.67
2023-05-08T23:46:16.839Z,98546.23
2023-05-08T23:48:43.835Z,98542.73
2023-05-08T23:51:10.472Z,98543.44
2023-05-08T23:53:37.189Z,98535.29
2023-05-08T23:56:04.151Z,98530.88
2023-05-08T23:58:30.921Z,98531.05
